createdAt,value
2022-09-21T00:01:49.896Z,96.3
2022-09-21T00:04:49.920Z,96.2
2022-09-21T00:07:49.898Z,96.3
2022-09-21T00:10:49.909Z,96.5
2022-09-21T00:13:49.900Z,96.5
2022-09-21T00:16:50.281Z,96.7
2022-09-21T00:19:49.906Z,96.8
2022-09-21T00:22:50.002Z,96.9
2022-09-21T00:25:49.922Z,97
2022-09-21T00:28:49.932Z,97.1
2022-09-21T00:31:49.954Z,97.2
2022-09-21T00:34:49.927Z,97.2
2022-09-21T00:37:49.932Z,97.2
2022-09-21T00:40:49.961Z,97.2
2022-09-21T00:43:49.935Z,97
2022-09-21T00:46:49.951Z,97
2022-09-21T00:49:49.949Z,97.1
2022-09-21T00:52:49.951Z,97.2
2022-09-21T00:55:49.960Z,97.3
2022-09-21T00:58:49.979Z,97.3
2022-09-21T01:01:50.021Z,97.4
2022-09-21T01:04:49.965Z,97.4
2022-09-21T01:07:49.970Z,97.4
2022-09-21T01:10:49.967Z,97.4
2022-09-21T01:13:49.975Z,97.5
2022-09-21T01:16:50.016Z,97.6
2022-09-21T01:19:49.987Z,97.6
2022-09-21T01:22:49.990Z,97.6
2022-09-21T01:25:49.987Z,97.7
2022-09-21T01:28:49.994Z,97.7
2022-09-21T01:31:50.038Z,97.8
2022-09-21T01:34:50.024Z,97.8
2022-09-21T01:37:50.008Z,97.8
2022-09-21T01:40:50.006Z,97.8
2022-09-21T01:43:50.010Z,97.8
2022-09-21T01:46:50.023Z,97.8
2022-09-21T01:49:50.019Z,97.8
2022-09-21T01:52:50.044Z,97.8
2022-09-21T01:55:50.030Z,97.8
2022-09-21T01:58:50.037Z,97.7
2022-09-21T02:01:50.083Z,97.5
2022-09-21T02:04:50.049Z,97.3
2022-09-21T02:07:50.054Z,97.2
2022-09-21T02:10:50.127Z,97
2022-09-21T02:13:50.061Z,97
2022-09-21T02:16:50.082Z,97
2022-09-21T02:19:50.075Z,97
2022-09-21T02:22:50.075Z,97.1
2022-09-21T02:25:50.074Z,97.2
2022-09-21T02:28:50.112Z,97.3
2022-09-21T02:31:50.102Z,97.4
2022-09-21T02:34:50.105Z,97.5
2022-09-21T02:37:50.108Z,97.6
2022-09-21T02:40:50.112Z,97.8
2022-09-21T02:43:50.117Z,97.8
2022-09-21T02:46:50.216Z,97.8
2022-09-21T02:49:50.129Z,97.8
2022-09-21T02:52:50.132Z,97.8
2022-09-21T02:55:53.111Z,97.8
2022-09-21T02:58:50.149Z,97.9
2022-09-21T03:01:50.194Z,98
2022-09-21T03:04:50.188Z,98
2022-09-21T03:07:50.166Z,98
2022-09-21T03:10:50.172Z,98
2022-09-21T03:13:50.179Z,97.9
2022-09-21T03:16:50.205Z,98
2022-09-21T03:19:50.194Z,98
2022-09-21T03:22:50.222Z,98
2022-09-21T03:25:50.216Z,98
2022-09-21T03:28:50.223Z,98
2022-09-21T03:31:50.229Z,98
2022-09-21T03:34:50.226Z,98
2022-09-21T03:37:50.235Z,98.2
2022-09-21T03:40:50.264Z,98.1
2022-09-21T03:43:50.242Z,98.2
2022-09-21T03:46:50.251Z,98.3
2022-09-21T03:49:50.258Z,98.3
2022-09-21T03:52:50.267Z,98.4
2022-09-21T03:55:50.265Z,98.4
2022-09-21T03:58:50.357Z,98.5
2022-09-21T04:01:50.314Z,98.5
2022-09-21T04:04:50.285Z,98.5
2022-09-21T04:07:50.294Z,98.6
2022-09-21T04:10:50.297Z,98.6
2022-09-21T04:13:50.300Z,98.7
2022-09-21T04:16:50.337Z,98.7
2022-09-21T04:19:50.321Z,98.7
2022-09-21T04:22:50.327Z,98.7
2022-09-21T04:25:50.333Z,98.7
2022-09-21T04:28:50.341Z,98.8
2022-09-21T04:31:50.346Z,98.8
2022-09-21T04:34:50.378Z,98.8
2022-09-21T04:37:50.362Z,98.8
2022-09-21T04:40:50.371Z,98.8
2022-09-21T04:43:50.376Z,98.8
2022-09-21T04:46:50.379Z,98.8
2022-09-21T04:49:50.383Z,98.8
2022-09-21T04:52:50.416Z,98.8
2022-09-21T04:55:50.399Z,98.8
2022-09-21T04:58:50.401Z,98.8
2022-09-21T05:01:50.505Z,98.8
2022-09-21T05:04:51.169Z,98.8
2022-09-21T05:07:50.430Z,98.8
2022-09-21T05:10:50.459Z,98.9
2022-09-21T05:13:50.440Z,98.9
2022-09-21T05:16:50.450Z,98.9
2022-09-21T05:19:50.454Z,98.9
2022-09-21T05:22:50.464Z,99
2022-09-21T05:25:50.466Z,99
2022-09-21T05:28:50.496Z,99
2022-09-21T05:31:50.509Z,99
2022-09-21T05:34:50.490Z,99.1
2022-09-21T05:37:50.497Z,99.1
2022-09-21T05:40:50.502Z,99.1
2022-09-21T05:43:50.511Z,99.2
2022-09-21T05:46:54.048Z,99.2
2022-09-21T05:49:50.528Z,99.2
2022-09-21T05:52:50.536Z,99.2
2022-09-21T05:55:50.547Z,99.3
2022-09-21T05:58:50.552Z,99.3
2022-09-21T06:01:50.557Z,99.3
2022-09-21T06:04:50.710Z,99.2
2022-09-21T06:07:50.570Z,99.3
2022-09-21T06:10:50.579Z,99.3
2022-09-21T06:13:50.586Z,99.3
2022-09-21T06:16:50.631Z,99.3
2022-09-21T06:19:50.601Z,99.3
2022-09-21T06:22:50.637Z,99.4
2022-09-21T06:25:52.684Z,99.4
2022-09-21T06:28:50.626Z,99.3
2022-09-21T06:31:50.635Z,99.3
2022-09-21T06:34:50.641Z,99.3
2022-09-21T06:37:50.646Z,99.2
2022-09-21T06:40:50.678Z,99.1
2022-09-21T06:43:50.660Z,99.1
2022-09-21T06:46:50.678Z,98.9
2022-09-21T06:49:50.688Z,98.9
2022-09-21T06:52:50.690Z,98.8
2022-09-21T06:55:50.698Z,98.8
2022-09-21T06:58:50.731Z,98.8
2022-09-21T07:01:50.816Z,98.6
2022-09-21T07:04:50.719Z,98.4
2022-09-21T07:07:53.465Z,98.2
2022-09-21T07:10:50.735Z,98
2022-09-21T07:13:50.745Z,97.8
2022-09-21T07:16:50.771Z,97.3
2022-09-21T07:19:50.761Z,96.6
2022-09-21T07:22:50.770Z,96.4
2022-09-21T07:25:50.777Z,96.3
2022-09-21T07:28:50.783Z,96
2022-09-21T07:31:50.834Z,95.8
2022-09-21T07:34:50.828Z,95.2
2022-09-21T07:37:50.808Z,94.5
2022-09-21T07:40:50.881Z,94.1
2022-09-21T07:43:50.822Z,93.5
2022-09-21T07:46:50.829Z,91.9
2022-09-21T07:49:50.835Z,91
2022-09-21T07:52:50.862Z,89.6
2022-09-21T07:55:50.846Z,89.6
2022-09-21T07:58:50.854Z,89
2022-09-21T08:01:50.881Z,88.8
2022-09-21T08:04:50.852Z,87.6
2022-09-21T08:07:50.854Z,84.5
2022-09-21T08:10:50.921Z,82.2
2022-09-21T08:13:50.884Z,81.1
2022-09-21T08:16:50.904Z,80.2
2022-09-21T08:19:50.871Z,79.2
2022-09-21T08:22:50.870Z,77.8
2022-09-21T08:25:50.876Z,76.6
2022-09-21T08:28:50.898Z,76.3
2022-09-21T08:31:50.976Z,74.8
2022-09-21T08:34:50.882Z,73.6
2022-09-21T08:37:50.881Z,72.9
2022-09-21T08:40:50.889Z,71.8
2022-09-21T08:43:50.892Z,69.9
2022-09-21T08:46:50.984Z,70.1
2022-09-21T08:49:50.890Z,67.6
2022-09-21T08:52:50.893Z,67.5
2022-09-21T08:55:50.897Z,67.1
2022-09-21T08:58:50.903Z,67.2
2022-09-21T09:01:50.936Z,66
2022-09-21T09:04:50.920Z,64.6
2022-09-21T09:07:50.895Z,63.1
2022-09-21T09:10:50.899Z,62.1
2022-09-21T09:13:50.903Z,62.9
2022-09-21T09:16:50.905Z,61.2
2022-09-21T09:19:50.908Z,61.6
2022-09-21T09:22:50.997Z,61.2
2022-09-21T09:25:50.908Z,59.8
2022-09-21T09:28:53.120Z,58.8
2022-09-21T09:31:51.033Z,58.7
2022-09-21T09:34:50.914Z,58.5
2022-09-21T09:37:50.914Z,58.5
2022-09-21T09:40:50.939Z,58.6
2022-09-21T09:43:50.910Z,59.4
2022-09-21T09:46:50.938Z,58.6
2022-09-21T09:49:50.920Z,58.5
2022-09-21T09:52:50.915Z,57.7
2022-09-21T09:55:50.939Z,58
2022-09-21T09:58:50.948Z,58.2
2022-09-21T10:01:50.976Z,55.6
2022-09-21T10:04:50.940Z,56.7
2022-09-21T10:07:50.929Z,55.9
2022-09-21T10:10:50.931Z,55.8
2022-09-21T10:13:50.933Z,57.1
2022-09-21T10:16:50.954Z,56.2
2022-09-21T10:19:50.934Z,55.8
2022-09-21T10:22:50.933Z,54.2
2022-09-21T10:25:50.935Z,55.1
2022-09-21T10:28:50.932Z,54.2
2022-09-21T10:31:50.947Z,55.7
2022-09-21T10:34:50.970Z,54.9
2022-09-21T10:37:50.959Z,54
2022-09-21T10:40:50.976Z,53.9
2022-09-21T10:43:50.948Z,53
2022-09-21T10:46:51.099Z,51.8
2022-09-21T10:49:50.948Z,52.1
2022-09-21T10:52:50.974Z,52.2
2022-09-21T10:56:04.675Z,50.7
2022-09-21T10:58:50.954Z,51.6
2022-09-21T11:01:51.041Z,50.8
2022-09-21T11:04:50.955Z,50.1
2022-09-21T11:07:50.964Z,50
2022-09-21T11:10:50.987Z,50.6
2022-09-21T11:13:50.964Z,51.2
2022-09-21T11:16:50.968Z,49.8
2022-09-21T11:19:50.971Z,48.7
2022-09-21T11:22:54.240Z,50.1
2022-09-21T11:25:50.970Z,50
2022-09-21T11:28:51.121Z,49.3
2022-09-21T11:31:50.990Z,49.9
2022-09-21T11:34:50.984Z,50.3
2022-09-21T11:37:50.979Z,49.4
2022-09-21T11:40:50.984Z,49.2
2022-09-21T11:43:50.981Z,50.1
2022-09-21T11:46:51.015Z,49.9
2022-09-21T11:49:55.983Z,48.8
2022-09-21T11:52:50.989Z,48.7
2022-09-21T11:55:51.011Z,48.8
2022-09-21T11:58:52.989Z,50.3
2022-09-21T12:01:51.000Z,49.9
2022-09-21T12:04:51.015Z,51.2
2022-09-21T12:07:50.994Z,51.7
2022-09-21T12:10:50.998Z,52.3
2022-09-21T12:13:51.000Z,51.6
2022-09-21T12:16:51.024Z,52
2022-09-21T12:19:50.997Z,51.8
2022-09-21T12:22:51.033Z,52.2
2022-09-21T12:25:51.078Z,52
2022-09-21T12:28:51.021Z,51.6
2022-09-21T12:31:51.007Z,51.9
2022-09-21T12:34:51.073Z,52.9
2022-09-21T12:37:51.010Z,53.5
2022-09-21T12:40:51.036Z,53.2
2022-09-21T12:43:51.016Z,52.8
2022-09-21T12:46:52.950Z,52.3
2022-09-21T12:49:51.025Z,52.9
2022-09-21T12:52:51.022Z,52.6
2022-09-21T12:55:51.030Z,52.2
2022-09-21T12:58:51.053Z,51.3
2022-09-21T13:01:54.930Z,51.5
2022-09-21T13:04:51.031Z,50.8
2022-09-21T13:07:51.034Z,50.5
2022-09-21T13:10:54.631Z,50.7
2022-09-21T13:13:51.039Z,50.3
2022-09-21T13:16:51.107Z,50.1
2022-09-21T13:19:51.049Z,49.7
2022-09-21T13:22:51.055Z,50.7
2022-09-21T13:25:51.050Z,52.2
2022-09-21T13:28:51.060Z,50.8
2022-09-21T13:31:51.062Z,51.8
2022-09-21T13:34:51.083Z,52.7
2022-09-21T13:37:51.063Z,52.9
2022-09-21T13:40:51.139Z,53
2022-09-21T13:43:51.068Z,53.5
2022-09-21T13:46:51.085Z,53.6
2022-09-21T13:49:51.081Z,53.6
2022-09-21T13:52:51.302Z,53.8
2022-09-21T13:55:51.083Z,52.8
2022-09-21T13:58:51.086Z,53.5
2022-09-21T14:01:51.163Z,53.7
2022-09-21T14:04:51.109Z,54.9
2022-09-21T14:07:51.105Z,55.6
2022-09-21T14:10:51.135Z,56.4
2022-09-21T14:13:51.107Z,57.4
2022-09-21T14:16:51.865Z,57.8
2022-09-21T14:19:51.116Z,58.5
2022-09-21T14:22:51.120Z,58.6
2022-09-21T14:25:51.146Z,59.1
2022-09-21T14:28:51.150Z,58.3
2022-09-21T14:31:51.222Z,58.2
2022-09-21T14:34:51.131Z,58.3
2022-09-21T14:37:51.145Z,59.2
2022-09-21T14:40:51.146Z,59.6
2022-09-21T14:43:51.145Z,60.4
2022-09-21T14:46:51.214Z,61.4
2022-09-21T14:49:51.152Z,61.7
2022-09-21T14:52:51.155Z,62
2022-09-21T14:55:51.164Z,62.2
2022-09-21T14:58:51.163Z,62.8
2022-09-21T15:01:51.168Z,62.8
2022-09-21T15:04:54.344Z,62.6
2022-09-21T15:07:51.189Z,63.1
2022-09-21T15:10:55.079Z,63.3
2022-09-21T15:13:51.184Z,63.9
2022-09-21T15:16:51.192Z,64.3
2022-09-21T15:19:51.194Z,64.5
2022-09-21T15:22:51.227Z,64.6
2022-09-21T15:25:51.202Z,64.9
2022-09-21T15:29:08.681Z,64.7
2022-09-21T15:31:51.274Z,64.2
2022-09-21T15:34:51.478Z,63.3
2022-09-21T15:37:51.214Z,63.2
2022-09-21T15:40:51.236Z,63
2022-09-21T15:43:51.223Z,62.7
2022-09-21T15:46:51.245Z,63.2
2022-09-21T15:49:51.224Z,63.5
2022-09-21T15:52:51.234Z,64.4
2022-09-21T15:55:51.240Z,65.1
2022-09-21T15:58:51.270Z,65.4
2022-09-21T16:01:51.241Z,66.5
2022-09-21T16:04:51.255Z,68.2
2022-09-21T16:07:51.253Z,68.6
2022-09-21T16:10:51.257Z,68.6
2022-09-21T16:13:51.262Z,69.4
2022-09-21T16:16:51.290Z,69.9
2022-09-21T16:19:51.269Z,70.5
2022-09-21T16:22:51.273Z,70.6
2022-09-21T16:25:51.281Z,71.2
2022-09-21T16:28:51.289Z,72.6
2022-09-21T16:31:51.376Z,74.3
2022-09-21T16:34:51.317Z,75.7
2022-09-21T16:37:51.295Z,76.3
2022-09-21T16:40:51.302Z,76.3
2022-09-21T16:43:51.302Z,76.6
2022-09-21T16:46:51.390Z,76.6
2022-09-21T16:49:51.311Z,76.8
2022-09-21T16:52:51.343Z,76.9
2022-09-21T16:55:51.323Z,77.4
2022-09-21T16:58:51.324Z,78.2
2022-09-21T17:01:55.418Z,79.5
2022-09-21T17:04:51.335Z,80.2
2022-09-21T17:07:51.340Z,81.2
2022-09-21T17:10:51.374Z,82.2
2022-09-21T17:13:51.345Z,82.9
2022-09-21T17:16:51.350Z,83.5
2022-09-21T17:19:51.355Z,83.3
2022-09-21T17:22:51.358Z,83.3
2022-09-21T17:25:51.370Z,82.9
2022-09-21T17:28:51.392Z,83
2022-09-21T17:31:51.372Z,83.1
2022-09-21T17:34:51.375Z,83.1
2022-09-21T17:37:51.391Z,83.4
2022-09-21T17:40:51.432Z,84.2
2022-09-21T17:43:51.404Z,84.6
2022-09-21T17:46:51.484Z,85
2022-09-21T17:49:51.402Z,85.5
2022-09-21T17:52:51.408Z,85.7
2022-09-21T17:55:51.412Z,86.2
2022-09-21T17:58:51.416Z,86.7
2022-09-21T18:01:51.478Z,87.3
2022-09-21T18:04:51.449Z,87.6
2022-09-21T18:07:51.441Z,87.3
2022-09-21T18:10:51.443Z,87.8
2022-09-21T18:13:51.440Z,88.3
2022-09-21T18:16:51.451Z,88.8
2022-09-21T18:19:51.453Z,88.4
2022-09-21T18:22:51.483Z,88.8
2022-09-21T18:25:51.464Z,89.5
2022-09-21T18:28:51.473Z,89.6
2022-09-21T18:31:51.486Z,89.6
2022-09-21T18:34:51.495Z,90
2022-09-21T18:37:51.492Z,90
2022-09-21T18:40:51.534Z,90.1
2022-09-21T18:43:51.502Z,90.4
2022-09-21T18:46:51.511Z,91
2022-09-21T18:49:51.522Z,91.5
2022-09-21T18:52:51.522Z,91.7
2022-09-21T18:55:51.536Z,92
2022-09-21T18:58:51.559Z,92.3
2022-09-21T19:01:51.618Z,92
2022-09-21T19:04:51.542Z,92
2022-09-21T19:07:51.552Z,92.1
2022-09-21T19:10:51.556Z,92.1
2022-09-21T19:13:51.574Z,91.7
2022-09-21T19:16:51.638Z,91.8
2022-09-21T19:19:51.584Z,91.9
2022-09-21T19:22:51.591Z,91.8
2022-09-21T19:25:51.592Z,92
2022-09-21T19:28:51.608Z,92.1
2022-09-21T19:31:51.602Z,92.2
2022-09-21T19:34:51.638Z,92.4
2022-09-21T19:37:51.625Z,92.7
2022-09-21T19:40:51.630Z,92.8
2022-09-21T19:43:51.636Z,93.2
2022-09-21T19:46:51.635Z,93.3
2022-09-21T19:49:51.655Z,92.7
2022-09-21T19:52:51.681Z,92.8
2022-09-21T19:55:51.662Z,93.1
2022-09-21T19:58:51.670Z,93.2
2022-09-21T20:01:51.752Z,93.2
2022-09-21T20:04:51.688Z,93.6
2022-09-21T20:07:51.701Z,93.9
2022-09-21T20:10:51.723Z,93.6
2022-09-21T20:13:51.713Z,92.9
2022-09-21T20:16:51.788Z,92.6
2022-09-21T20:19:51.729Z,92.7
2022-09-21T20:22:51.732Z,93
2022-09-21T20:25:51.739Z,93.1
2022-09-21T20:28:51.775Z,93.6
2022-09-21T20:31:51.762Z,94
2022-09-21T20:34:51.769Z,94.1
2022-09-21T20:37:51.788Z,94.3
2022-09-21T20:40:51.873Z,94.5
2022-09-21T20:43:51.788Z,94.7
2022-09-21T20:46:51.815Z,94.8
2022-09-21T20:49:51.799Z,95
2022-09-21T20:52:51.814Z,95.2
2022-09-21T20:55:51.816Z,95.2
2022-09-21T20:58:51.824Z,94.6
2022-09-21T21:01:51.861Z,94.1
2022-09-21T21:04:51.869Z,94.3
2022-09-21T21:07:51.859Z,94.6
2022-09-21T21:10:51.861Z,94.7
2022-09-21T21:13:51.869Z,94.8
2022-09-21T21:16:51.923Z,94.8
2022-09-21T21:19:51.887Z,95
2022-09-21T21:22:51.911Z,95.4
2022-09-21T21:25:51.898Z,95.7
2022-09-21T21:28:51.911Z,95.8
2022-09-21T21:31:51.949Z,95.5
2022-09-21T21:34:51.929Z,94.7
2022-09-21T21:37:51.942Z,94.4
2022-09-21T21:40:51.976Z,94.5
2022-09-21T21:43:51.953Z,94.2
2022-09-21T21:46:51.967Z,94.1
2022-09-21T21:49:51.972Z,94.2
2022-09-21T21:52:51.986Z,94.3
2022-09-21T21:55:51.996Z,94.6
2022-09-21T21:58:52.025Z,94.9
2022-09-21T22:01:52.052Z,95.3
2022-09-21T22:04:52.013Z,95.5
2022-09-21T22:07:52.022Z,95.6
2022-09-21T22:10:52.034Z,95.6
2022-09-21T22:13:52.049Z,95.5
2022-09-21T22:16:52.110Z,95.6
2022-09-21T22:19:52.070Z,95.8
2022-09-21T22:22:52.074Z,95.9
2022-09-21T22:25:52.084Z,96
2022-09-21T22:28:52.099Z,95.7
2022-09-21T22:31:52.178Z,95.4
2022-09-21T22:34:52.139Z,95.2
2022-09-21T22:37:52.129Z,95.2
2022-09-21T22:40:52.137Z,95.2
2022-09-21T22:43:52.148Z,95.2
2022-09-21T22:46:52.164Z,95.4
2022-09-21T22:49:52.171Z,95.7
2022-09-21T22:52:52.207Z,96
2022-09-21T22:55:52.200Z,96.3
2022-09-21T22:58:52.206Z,96.4
2022-09-21T23:01:52.221Z,96.2
2022-09-21T23:04:52.227Z,96
2022-09-21T23:07:52.241Z,96.1
2022-09-21T23:10:52.274Z,96.2
2022-09-21T23:13:52.269Z,96.3
2022-09-21T23:16:52.278Z,96.5
2022-09-21T23:19:52.291Z,96.7
2022-09-21T23:22:52.296Z,96.9
2022-09-21T23:25:52.311Z,97
2022-09-21T23:28:52.349Z,97
2022-09-21T23:31:52.337Z,96.9
2022-09-21T23:34:52.340Z,96.8
2022-09-21T23:37:52.362Z,96.6
2022-09-21T23:40:52.371Z,96.2
2022-09-21T23:43:52.376Z,95.9
2022-09-21T23:46:52.499Z,95.6
2022-09-21T23:49:52.401Z,95.7
2022-09-21T23:52:52.415Z,95.8
2022-09-21T23:55:52.426Z,96
2022-09-21T23:58:52.429Z,96.2
